createdAt,value
2023-05-14T00:01:28.283Z,41.96
2023-05-14T00:03:54.890Z,42.38
2023-05-14T00:06:21.545Z,42.32
2023-05-14T00:08:48.030Z,42.31
2023-05-14T00:11:14.591Z,42.22
2023-05-14T00:13:41.126Z,42.05
2023-05-14T00:16:07.726Z,42.07
2023-05-14T00:18:34.255Z,41.75
2023-05-14T00:21:00.830Z,42.17
2023-05-14T00:23:27.458Z,42.22
2023-05-14T00:25:54.012Z,42.44
2023-05-14T00:28:20.887Z,42.12
2023-05-14T00:30:48.481Z,42.19
2023-05-14T00:33:15.549Z,41.81
2023-05-14T00:35:42.065Z,42.07
2023-05-14T00:38:08.603Z,42.19
2023-05-14T00:40:35.155Z,42.23
2023-05-14T00:43:01.682Z,42.45
2023-05-14T00:45:28.310Z,42.27
2023-05-14T00:47:54.942Z,42.17
2023-05-14T00:50:22.393Z,42.30
2023-05-14T00:52:49.356Z,42.26
2023-05-14T00:55:16.726Z,42.05
2023-05-14T00:57:44.370Z,42.44
2023-05-14T01:00:11.438Z,41.88
2023-05-14T01:02:38.169Z,42.40
2023-05-14T01:05:05.721Z,42.17
2023-05-14T01:07:53.977Z,42.31
2023-05-14T01:10:41.948Z,42.00
2023-05-14T01:13:18.479Z,42.06
2023-05-14T01:15:47.589Z,42.26
2023-05-14T01:18:19.027Z,42.40
2023-05-14T01:20:45.986Z,42.17
2023-05-14T01:23:12.658Z,42.17
2023-05-14T01:25:39.189Z,42.30
2023-05-14T01:28:20.576Z,42.12
2023-05-14T01:31:13.128Z,42.25
2023-05-14T01:33:42.276Z,42.32
2023-05-14T01:36:09.705Z,42.18
2023-05-14T01:38:37.226Z,42.47
2023-05-14T01:41:05.274Z,42.20
2023-05-14T01:43:32.353Z,42.29
2023-05-14T01:45:58.923Z,42.18
2023-05-14T01:48:25.535Z,42.09
2023-05-14T01:50:52.435Z,42.11
2023-05-14T01:53:19.034Z,42.26
2023-05-14T01:55:45.719Z,42.29
2023-05-14T01:58:12.224Z,42.32
2023-05-14T02:00:38.794Z,42.27
2023-05-14T02:03:05.301Z,42.18
2023-05-14T02:05:31.847Z,42.57
2023-05-14T02:07:58.321Z,42.08
2023-05-14T02:10:25.125Z,42.14
2023-05-14T02:12:51.948Z,42.03
2023-05-14T02:15:18.583Z,42.12
2023-05-14T02:17:45.656Z,42.32
2023-05-14T02:20:12.830Z,42.37
2023-05-14T02:22:42.187Z,42.31
2023-05-14T02:25:09.308Z,42.44
2023-05-14T02:27:35.772Z,42.25
2023-05-14T02:30:03.116Z,42.15
2023-05-14T02:32:29.842Z,42.28
2023-05-14T02:34:56.413Z,42.50
2023-05-14T02:37:22.909Z,42.28
2023-05-14T02:39:49.545Z,42.18
2023-05-14T02:42:16.041Z,42.31
2023-05-14T02:44:42.585Z,42.20
2023-05-14T02:47:09.201Z,42.36
2023-05-14T02:49:36.046Z,41.95
2023-05-14T02:52:03.525Z,42.26
2023-05-14T02:54:29.971Z,42.15
2023-05-14T02:56:56.515Z,42.16
2023-05-14T02:59:24.841Z,42.33
2023-05-14T03:01:52.017Z,42.32
2023-05-14T03:04:19.035Z,42.56
2023-05-14T03:06:45.566Z,42.14
2023-05-14T03:09:12.300Z,42.32
2023-05-14T03:11:38.896Z,42.28
2023-05-14T03:14:05.410Z,42.22
2023-05-14T03:16:31.939Z,41.67
2023-05-14T03:18:58.546Z,42.02
2023-05-14T03:21:25.456Z,42.44
2023-05-14T03:23:52.955Z,42.22
2023-05-14T03:26:19.435Z,42.17
2023-05-14T03:28:45.981Z,42.35
2023-05-14T03:31:12.667Z,42.22
2023-05-14T03:33:39.521Z,42.11
2023-05-14T03:36:06.133Z,42.33
2023-05-14T03:38:32.609Z,42.28
2023-05-14T03:40:59.197Z,42.20
2023-05-14T03:43:25.966Z,42.64
2023-05-14T03:45:52.920Z,42.30
2023-05-14T03:48:20.128Z,42.19
2023-05-14T03:50:47.110Z,42.17
2023-05-14T03:53:13.827Z,42.02
2023-05-14T03:55:40.349Z,42.12
2023-05-14T03:58:13.926Z,42.21
2023-05-14T04:00:42.165Z,42.23
2023-05-14T04:03:10.246Z,41.63
2023-05-14T04:05:36.826Z,42.18
2023-05-14T04:08:03.493Z,42.07
2023-05-14T04:10:32.288Z,42.18
2023-05-14T04:13:00.349Z,42.43
2023-05-14T04:15:31.246Z,42.16
2023-05-14T04:17:57.980Z,42.19
2023-05-14T04:20:24.690Z,42.30
2023-05-14T04:22:51.366Z,42.11
2023-05-14T04:25:18.572Z,41.96
2023-05-14T04:27:45.065Z,42.05
2023-05-14T04:30:11.945Z,42.24
2023-05-14T04:32:38.971Z,42.07
2023-05-14T04:35:05.964Z,42.26
2023-05-14T04:37:33.056Z,42.30
2023-05-14T04:39:59.567Z,42.07
2023-05-14T04:42:26.014Z,42.14
2023-05-14T04:44:52.606Z,42.10
2023-05-14T04:47:19.753Z,42.33
2023-05-14T04:49:46.361Z,42.13
2023-05-14T04:52:12.942Z,42.08
2023-05-14T04:54:39.483Z,42.18
2023-05-14T04:57:06.212Z,41.91
2023-05-14T04:59:32.728Z,42.07
2023-05-14T05:01:59.247Z,42.02
2023-05-14T05:04:26.435Z,42.26
2023-05-14T05:06:53.034Z,42.33
2023-05-14T05:09:19.689Z,42.16
2023-05-14T05:11:46.209Z,42.08
2023-05-14T05:14:12.706Z,42.41
2023-05-14T05:16:39.284Z,42.06
2023-05-14T05:19:05.877Z,42.32
2023-05-14T05:21:32.577Z,42.28
2023-05-14T05:23:59.096Z,42.28
2023-05-14T05:26:27.183Z,42.05
2023-05-14T05:28:53.906Z,41.92
2023-05-14T05:31:20.535Z,42.10
2023-05-14T05:33:47.831Z,42.13
2023-05-14T05:36:14.481Z,42.17
2023-05-14T05:38:40.953Z,42.11
2023-05-14T05:41:07.559Z,42.22
2023-05-14T05:43:34.180Z,42.08
2023-05-14T05:46:01.266Z,42.07
2023-05-14T05:48:28.374Z,41.93
2023-05-14T05:50:55.116Z,42.22
2023-05-14T05:53:21.658Z,42.44
2023-05-14T05:55:48.186Z,42.52
2023-05-14T05:58:17.265Z,42.41
2023-05-14T06:00:43.977Z,42.23
2023-05-14T06:03:11.478Z,42.00
2023-05-14T06:05:38.149Z,42.50
2023-05-14T06:08:05.193Z,42.02
2023-05-14T06:10:31.998Z,41.76
2023-05-14T06:12:58.505Z,42.18
2023-05-14T06:15:25.145Z,42.20
2023-05-14T06:17:51.825Z,42.05
2023-05-14T06:20:19.032Z,42.05
2023-05-14T06:22:45.645Z,42.02
2023-05-14T06:25:12.137Z,41.96
2023-05-14T06:27:38.802Z,42.02
2023-05-14T06:30:06.915Z,41.96
2023-05-14T06:32:33.526Z,42.03
2023-05-14T06:35:00.139Z,42.25
2023-05-14T06:37:26.684Z,41.99
2023-05-14T06:39:54.135Z,42.19
2023-05-14T06:42:21.384Z,42.07
2023-05-14T06:44:47.916Z,41.96
2023-05-14T06:47:15.281Z,42.13
2023-05-14T06:49:41.876Z,42.21
2023-05-14T06:52:08.407Z,41.95
2023-05-14T06:54:35.115Z,42.12
2023-05-14T06:57:01.644Z,41.90
2023-05-14T06:59:28.301Z,41.96
2023-05-14T07:01:54.833Z,41.89
2023-05-14T07:04:21.455Z,42.06
2023-05-14T07:06:47.939Z,42.24
2023-05-14T07:09:16.061Z,41.88
2023-05-14T07:11:42.532Z,42.08
2023-05-14T07:14:09.472Z,42.08
2023-05-14T07:16:36.383Z,42.00
2023-05-14T07:19:03.012Z,42.06
2023-05-14T07:21:29.548Z,42.06
2023-05-14T07:23:56.141Z,42.31
2023-05-14T07:26:24.503Z,42.01
2023-05-14T07:28:51.171Z,42.23
2023-05-14T07:31:17.708Z,42.11
2023-05-14T07:33:44.272Z,42.10
2023-05-14T07:36:11.050Z,41.92
2023-05-14T07:38:37.719Z,41.92
2023-05-14T07:41:04.567Z,42.08
2023-05-14T07:43:31.209Z,42.24
2023-05-14T07:45:57.774Z,42.28
2023-05-14T07:48:24.355Z,42.18
2023-05-14T07:50:51.573Z,42.15
2023-05-14T07:53:18.100Z,42.08
2023-05-14T07:55:46.850Z,42.24
2023-05-14T07:58:13.374Z,41.99
2023-05-14T08:00:39.946Z,42.08
2023-05-14T08:03:06.618Z,42.17
2023-05-14T08:05:33.296Z,41.97
2023-05-14T08:07:59.814Z,42.33
2023-05-14T08:10:26.947Z,42.27
2023-05-14T08:12:53.805Z,42.36
2023-05-14T08:15:20.477Z,42.10
2023-05-14T08:17:47.036Z,42.83
2023-05-14T08:20:13.494Z,42.40
2023-05-14T08:22:40.035Z,42.47
2023-05-14T08:25:07.795Z,42.42
2023-05-14T08:27:34.640Z,42.52
2023-05-14T08:30:01.149Z,42.42
2023-05-14T08:32:27.667Z,42.21
2023-05-14T08:34:54.247Z,42.43
2023-05-14T08:37:20.776Z,42.63
2023-05-14T08:39:47.287Z,42.28
2023-05-14T08:42:15.962Z,42.54
2023-05-14T08:44:50.069Z,42.51
2023-05-14T08:47:18.447Z,42.57
2023-05-14T08:49:49.673Z,42.39
2023-05-14T08:52:18.042Z,42.43
2023-05-14T08:54:45.623Z,42.64
2023-05-14T08:57:13.026Z,42.61
2023-05-14T08:59:39.639Z,42.53
2023-05-14T09:02:07.909Z,42.53
2023-05-14T09:04:34.894Z,42.56
2023-05-14T09:07:02.116Z,42.44
2023-05-14T09:09:28.982Z,42.46
2023-05-14T09:11:55.705Z,42.23
2023-05-14T09:14:23.272Z,42.50
2023-05-14T09:16:51.165Z,42.44
2023-05-14T09:19:21.776Z,42.28
2023-05-14T09:21:49.647Z,42.23
2023-05-14T09:24:25.007Z,42.18
2023-05-14T09:26:54.351Z,42.17
2023-05-14T09:29:21.131Z,42.19
2023-05-14T09:31:51.557Z,42.23
2023-05-14T09:34:28.905Z,42.08
2023-05-14T09:37:01.327Z,42.22
2023-05-14T09:39:28.842Z,42.12
2023-05-14T09:41:56.197Z,42.11
2023-05-14T09:44:23.650Z,42.23
2023-05-14T09:46:51.204Z,42.10
2023-05-14T09:49:18.062Z,42.36
2023-05-14T09:51:44.936Z,42.10
2023-05-14T09:54:11.548Z,42.18
2023-05-14T09:56:39.495Z,42.09
2023-05-14T09:59:06.369Z,42.17
2023-05-14T10:01:33.268Z,42.29
2023-05-14T10:04:04.122Z,42.56
2023-05-14T10:06:36.292Z,42.52
2023-05-14T10:09:12.601Z,42.49
2023-05-14T10:11:44.014Z,42.31
2023-05-14T10:14:18.618Z,42.58
2023-05-14T10:16:50.508Z,42.16
2023-05-14T10:19:20.071Z,42.33
2023-05-14T10:21:56.621Z,42.33
2023-05-14T10:24:24.999Z,42.19
2023-05-14T10:26:52.003Z,42.21
2023-05-14T10:29:18.601Z,41.97
2023-05-14T10:31:48.204Z,42.46
2023-05-14T10:34:44.207Z,42.39
2023-05-14T10:37:19.125Z,42.26
2023-05-14T10:39:50.973Z,42.19
2023-05-14T10:42:23.625Z,42.36
2023-05-14T10:45:01.736Z,42.13
2023-05-14T10:47:29.281Z,42.10
2023-05-14T10:49:58.176Z,42.16
2023-05-14T10:52:26.046Z,42.25
2023-05-14T10:54:58.512Z,42.09
2023-05-14T10:57:28.625Z,42.07
2023-05-14T11:00:00.360Z,42.25
2023-05-14T11:02:38.204Z,42.24
2023-05-14T11:05:11.568Z,42.32
2023-05-14T11:07:47.686Z,42.18
2023-05-14T11:10:21.842Z,42.24
2023-05-14T11:12:50.909Z,42.30
2023-05-14T11:15:28.305Z,42.13
2023-05-14T11:17:54.828Z,42.45
2023-05-14T11:20:21.650Z,42.24
2023-05-14T11:22:49.368Z,42.26
2023-05-14T11:25:16.168Z,42.40
2023-05-14T11:27:44.206Z,42.42
2023-05-14T11:30:15.337Z,42.06
2023-05-14T11:32:43.541Z,42.31
2023-05-14T11:35:10.309Z,42.37
2023-05-14T11:37:36.927Z,42.15
2023-05-14T11:40:08.986Z,42.24
2023-05-14T11:42:36.734Z,42.34
2023-05-14T11:45:03.499Z,42.38
2023-05-14T11:47:31.384Z,42.31
2023-05-14T11:50:00.772Z,42.46
2023-05-14T11:52:27.295Z,42.30
2023-05-14T11:54:53.784Z,42.20
2023-05-14T11:57:21.506Z,42.41
2023-05-14T11:59:56.000Z,42.27
2023-05-14T12:02:23.026Z,42.38
2023-05-14T12:04:52.181Z,42.34
2023-05-14T12:07:19.133Z,42.19
2023-05-14T12:09:50.760Z,42.29
2023-05-14T12:12:23.537Z,42.28
2023-05-14T12:14:50.585Z,42.32
2023-05-14T12:17:22.576Z,42.19
2023-05-14T12:19:51.718Z,42.28
2023-05-14T12:22:21.947Z,42.23
2023-05-14T12:24:56.544Z,42.33
2023-05-14T12:27:24.780Z,42.44
2023-05-14T12:30:06.286Z,42.40
2023-05-14T12:32:42.736Z,42.34
2023-05-14T12:35:09.986Z,42.83
2023-05-14T12:37:37.558Z,42.45
2023-05-14T12:40:09.107Z,42.30
2023-05-14T12:42:36.130Z,42.38
2023-05-14T12:45:05.500Z,42.43
2023-05-14T12:47:33.104Z,42.34
2023-05-14T12:49:59.613Z,42.66
2023-05-14T12:55:00.049Z,42.42
2023-05-14T12:57:27.652Z,42.43
2023-05-14T12:59:55.420Z,42.55
2023-05-14T13:02:21.954Z,42.52
2023-05-14T13:04:48.475Z,42.48
2023-05-14T13:07:15.517Z,42.39
2023-05-14T13:09:42.079Z,42.41
2023-05-14T13:12:09.091Z,42.29
2023-05-14T13:14:36.396Z,42.35
2023-05-14T13:17:04.789Z,42.36
2023-05-14T13:19:31.336Z,42.69
2023-05-14T13:21:57.887Z,42.28
2023-05-14T13:24:25.033Z,42.43
2023-05-14T13:26:51.561Z,42.48
2023-05-14T13:29:18.105Z,42.52
2023-05-14T13:31:44.713Z,42.40
2023-05-14T13:34:11.290Z,42.45
2023-05-14T13:36:39.700Z,42.25
2023-05-14T13:39:07.093Z,42.23
2023-05-14T13:41:35.659Z,42.57
2023-05-14T13:44:02.238Z,42.54
2023-05-14T13:46:28.970Z,42.45
2023-05-14T13:48:55.494Z,42.81
2023-05-14T13:51:25.184Z,42.56
2023-05-14T13:53:51.727Z,42.56
2023-05-14T13:56:18.705Z,42.29
2023-05-14T13:58:45.269Z,42.49
2023-05-14T14:01:11.797Z,42.01
2023-05-14T14:03:38.272Z,42.16
2023-05-14T14:06:04.807Z,42.64
2023-05-14T14:08:31.336Z,42.33
2023-05-14T14:10:57.856Z,42.40
2023-05-14T14:13:24.446Z,42.28
2023-05-14T14:15:51.463Z,42.51
2023-05-14T14:18:18.038Z,42.22
2023-05-14T14:20:44.553Z,42.45
2023-05-14T14:23:10.986Z,42.44
2023-05-14T14:25:37.577Z,42.54
2023-05-14T14:28:04.137Z,42.51
2023-05-14T14:30:30.814Z,42.75
2023-05-14T14:32:57.538Z,42.40
2023-05-14T14:35:24.419Z,42.44
2023-05-14T14:37:53.614Z,42.09
2023-05-14T14:40:20.499Z,42.53
2023-05-14T14:42:46.989Z,42.58
2023-05-14T14:45:13.535Z,42.25
2023-05-14T14:47:47.139Z,42.43
2023-05-14T14:50:13.774Z,42.83
2023-05-14T14:52:45.431Z,42.41
2023-05-14T14:55:12.635Z,42.53
2023-05-14T14:57:39.204Z,42.51
2023-05-14T15:00:07.269Z,42.42
2023-05-14T15:02:34.004Z,42.81
2023-05-14T15:05:00.712Z,42.49
2023-05-14T15:07:27.271Z,42.49
2023-05-14T15:09:53.740Z,42.46
2023-05-14T15:12:20.444Z,42.70
2023-05-14T15:14:46.901Z,42.64
2023-05-14T15:17:13.325Z,42.28
2023-05-14T15:19:39.820Z,42.24
2023-05-14T15:22:06.350Z,42.73
2023-05-14T15:24:32.865Z,42.55
2023-05-14T15:26:59.441Z,42.63
2023-05-14T15:29:25.965Z,42.35
2023-05-14T15:31:52.670Z,42.27
2023-05-14T15:34:19.201Z,42.50
2023-05-14T15:36:45.821Z,42.64
2023-05-14T15:39:12.860Z,42.62
2023-05-14T15:41:39.445Z,42.36
2023-05-14T15:44:06.046Z,42.46
2023-05-14T15:46:32.590Z,42.22
2023-05-14T15:48:59.179Z,42.45
2023-05-14T15:51:25.797Z,42.58
2023-05-14T15:53:55.445Z,42.43
2023-05-14T15:56:22.896Z,42.46
2023-05-14T15:58:49.909Z,42.41
2023-05-14T16:01:16.799Z,42.46
2023-05-14T16:03:43.608Z,42.52
2023-05-14T16:06:11.289Z,42.37
2023-05-14T16:08:38.246Z,42.34
2023-05-14T16:11:05.527Z,42.52
2023-05-14T16:13:32.214Z,42.51
2023-05-14T16:15:59.523Z,42.47
2023-05-14T16:18:26.319Z,42.35
2023-05-14T16:20:53.485Z,42.48
2023-05-14T16:23:19.993Z,42.11
2023-05-14T16:25:46.557Z,42.33
2023-05-14T16:28:13.462Z,42.60
2023-05-14T16:30:39.974Z,42.61
2023-05-14T16:33:06.670Z,42.75
2023-05-14T16:35:33.278Z,42.39
2023-05-14T16:37:59.747Z,42.63
2023-05-14T16:40:26.381Z,42.53
2023-05-14T16:42:52.949Z,42.17
2023-05-14T16:45:19.478Z,42.53
2023-05-14T16:47:45.978Z,42.50
2023-05-14T16:50:12.486Z,42.71
2023-05-14T16:52:39.089Z,42.52
2023-05-14T16:55:06.058Z,42.58
2023-05-14T16:57:32.524Z,42.44
2023-05-14T16:59:59.318Z,42.52
2023-05-14T17:02:26.123Z,42.37
2023-05-14T17:04:54.148Z,42.73
2023-05-14T17:07:20.757Z,42.49
2023-05-14T17:09:47.215Z,42.07
2023-05-14T17:12:13.941Z,42.41
2023-05-14T17:14:40.538Z,42.37
2023-05-14T17:17:07.074Z,42.59
2023-05-14T17:19:33.606Z,42.32
2023-05-14T17:22:00.185Z,42.35
2023-05-14T17:24:26.667Z,42.48
2023-05-14T17:26:53.242Z,42.43
2023-05-14T17:29:19.788Z,42.56
2023-05-14T17:31:46.708Z,42.42
2023-05-14T17:34:13.668Z,42.33
2023-05-14T17:36:40.833Z,42.49
2023-05-14T17:39:07.351Z,42.47
2023-05-14T17:41:33.879Z,42.48
2023-05-14T17:44:00.434Z,42.33
2023-05-14T17:46:26.995Z,42.43
2023-05-14T17:48:53.506Z,42.26
2023-05-14T17:51:20.023Z,42.57
2023-05-14T17:53:46.518Z,42.21
2023-05-14T17:56:13.240Z,42.62
2023-05-14T17:58:39.776Z,42.24
2023-05-14T18:01:06.437Z,42.27
2023-05-14T18:03:33.692Z,42.60
2023-05-14T18:06:00.439Z,42.43
2023-05-14T18:08:26.902Z,42.55
2023-05-14T18:10:53.417Z,42.44
2023-05-14T18:13:20.029Z,42.67
2023-05-14T18:15:48.923Z,42.58
2023-05-14T18:18:18.593Z,42.48
2023-05-14T18:20:45.355Z,42.37
2023-05-14T18:23:11.910Z,42.51
2023-05-14T18:25:39.403Z,42.33
2023-05-14T18:28:06.684Z,42.38
2023-05-14T18:30:33.408Z,42.32
2023-05-14T18:33:00.059Z,42.46
2023-05-14T18:35:27.753Z,42.28
2023-05-14T18:37:54.868Z,42.19
2023-05-14T18:40:21.534Z,42.25
2023-05-14T18:42:48.132Z,42.16
2023-05-14T18:45:14.816Z,42.16
2023-05-14T18:47:41.502Z,42.31
2023-05-14T18:50:08.562Z,42.25
2023-05-14T18:52:35.216Z,42.40
2023-05-14T18:55:01.683Z,42.29
2023-05-14T18:57:29.371Z,42.22
2023-05-14T18:59:55.974Z,42.51
2023-05-14T19:02:22.574Z,42.09
2023-05-14T19:04:52.649Z,42.08
2023-05-14T19:07:20.558Z,42.33
2023-05-14T19:09:47.041Z,42.37
2023-05-14T19:12:13.924Z,42.31
2023-05-14T19:14:40.466Z,42.20
2023-05-14T19:17:07.342Z,41.93
2023-05-14T19:19:33.807Z,41.98
2023-05-14T19:22:00.543Z,42.23
2023-05-14T19:24:27.026Z,42.21
2023-05-14T19:26:53.536Z,42.23
2023-05-14T19:29:20.007Z,42.31
2023-05-14T19:31:47.182Z,42.50
2023-05-14T19:34:13.814Z,42.28
2023-05-14T19:36:41.576Z,42.22
2023-05-14T19:39:08.092Z,42.23
2023-05-14T19:41:34.586Z,42.20
2023-05-14T19:44:01.103Z,42.12
2023-05-14T19:46:27.680Z,42.32
2023-05-14T19:48:54.215Z,42.17
2023-05-14T19:51:20.706Z,42.08
2023-05-14T19:53:47.218Z,42.24
2023-05-14T19:56:13.826Z,42.28
2023-05-14T19:58:40.453Z,42.37
2023-05-14T20:01:07.045Z,42.51
2023-05-14T20:03:33.706Z,42.45
2023-05-14T20:06:02.737Z,42.46
2023-05-14T20:08:29.217Z,42.29
2023-05-14T20:10:55.719Z,42.04
2023-05-14T20:13:24.492Z,42.46
2023-05-14T20:15:51.892Z,42.03
2023-05-14T20:18:18.419Z,42.37
2023-05-14T20:20:44.927Z,42.55
2023-05-14T20:23:11.511Z,42.50
2023-05-14T20:25:38.022Z,42.25
2023-05-14T20:28:04.562Z,42.27
2023-05-14T20:30:31.137Z,42.61
2023-05-14T20:32:58.042Z,42.55
2023-05-14T20:35:24.772Z,42.41
2023-05-14T20:37:51.458Z,42.53
2023-05-14T20:40:18.064Z,42.36
2023-05-14T20:42:44.855Z,42.60
2023-05-14T20:45:11.500Z,42.37
2023-05-14T20:47:38.083Z,42.38
2023-05-14T20:50:04.875Z,42.47
2023-05-14T20:52:31.439Z,42.44
2023-05-14T20:55:00.746Z,42.38
2023-05-14T20:57:28.260Z,42.48
2023-05-14T20:59:54.878Z,42.84
2023-05-14T21:02:21.532Z,42.36
2023-05-14T21:04:48.348Z,42.59
2023-05-14T21:07:14.903Z,42.64
2023-05-14T21:09:41.954Z,42.58
2023-05-14T21:12:08.921Z,42.48
2023-05-14T21:14:35.566Z,42.47
2023-05-14T21:17:02.125Z,43.12
2023-05-14T21:19:28.629Z,42.31
2023-05-14T21:21:55.175Z,42.65
2023-05-14T21:24:21.669Z,42.80
2023-05-14T21:26:48.226Z,42.43
2023-05-14T21:29:14.682Z,42.99
2023-05-14T21:31:41.222Z,42.39
2023-05-14T21:34:07.813Z,42.27
2023-05-14T21:36:34.501Z,42.73
2023-05-14T21:39:01.000Z,42.63
2023-05-14T21:41:27.550Z,42.73
2023-05-14T21:43:54.044Z,42.81
2023-05-14T21:46:20.603Z,42.76
2023-05-14T21:48:47.184Z,42.60
2023-05-14T21:51:13.813Z,42.89
2023-05-14T21:53:40.332Z,42.90
2023-05-14T21:56:08.131Z,42.67
2023-05-14T21:58:35.577Z,42.63
2023-05-14T22:01:02.177Z,42.55
2023-05-14T22:03:28.850Z,42.76
2023-05-14T22:05:56.147Z,42.85
2023-05-14T22:08:23.792Z,42.57
2023-05-14T22:10:50.336Z,42.66
2023-05-14T22:13:16.821Z,43.20
2023-05-14T22:15:43.471Z,42.81
2023-05-14T22:18:10.432Z,42.64
2023-05-14T22:20:36.982Z,42.73
2023-05-14T22:23:03.482Z,42.72
2023-05-14T22:25:29.999Z,42.50
2023-05-14T22:27:56.640Z,42.81
2023-05-14T22:30:23.188Z,42.71
2023-05-14T22:32:49.757Z,42.71
2023-05-14T22:35:16.783Z,42.75
2023-05-14T22:37:43.416Z,42.51
2023-05-14T22:40:10.383Z,43.04
2023-05-14T22:42:36.942Z,42.63
2023-05-14T22:45:03.541Z,42.88
2023-05-14T22:47:30.186Z,42.80
2023-05-14T22:49:56.674Z,42.64
2023-05-14T22:52:23.134Z,43.12
2023-05-14T22:54:51.022Z,42.67
2023-05-14T22:57:17.944Z,42.82
2023-05-14T22:59:44.451Z,42.88
2023-05-14T23:02:11.223Z,42.87
2023-05-14T23:04:37.822Z,42.58
2023-05-14T23:07:04.606Z,43.00
2023-05-14T23:09:31.196Z,42.79
2023-05-14T23:11:57.654Z,42.79
2023-05-14T23:14:24.190Z,42.84
2023-05-14T23:16:50.695Z,42.81
2023-05-14T23:19:17.331Z,42.85
2023-05-14T23:21:43.845Z,42.82
2023-05-14T23:24:10.377Z,42.89
2023-05-14T23:26:37.084Z,42.64
2023-05-14T23:29:03.567Z,42.47
2023-05-14T23:31:30.297Z,43.07
2023-05-14T23:33:57.070Z,42.85
2023-05-14T23:36:23.882Z,42.82
2023-05-14T23:38:50.578Z,42.64
2023-05-14T23:41:17.066Z,42.76
2023-05-14T23:43:43.812Z,42.74
2023-05-14T23:46:10.560Z,42.60
2023-05-14T23:48:37.134Z,42.53
2023-05-14T23:51:03.753Z,42.96
2023-05-14T23:53:30.225Z,42.82
2023-05-14T23:55:56.976Z,42.59
2023-05-14T23:58:23.689Z,42.89
